sensor_id;sensor_type;location;lat;lon;timestamp;temperature;humidity
30148;DHT22;16960;49.404;8.248;2023-01-30T00:00:54;20.00;32.60
30148;DHT22;16960;49.404;8.248;2023-01-30T00:03:23;20.00;32.70
30148;DHT22;16960;49.404;8.248;2023-01-30T00:05:50;20.00;32.70
30148;DHT22;16960;49.404;8.248;2023-01-30T00:08:17;19.90;32.70
30148;DHT22;16960;49.404;8.248;2023-01-30T00:10:45;20.00;32.70
30148;DHT22;16960;49.404;8.248;2023-01-30T00:13:13;20.00;32.70
30148;DHT22;16960;49.404;8.248;2023-01-30T00:15:41;19.90;32.70
30148;DHT22;16960;49.404;8.248;2023-01-30T00:18:08;19.90;32.70
30148;DHT22;16960;49.404;8.248;2023-01-30T00:20:37;19.90;32.70
30148;DHT22;16960;49.404;8.248;2023-01-30T00:23:04;19.90;32.70
30148;DHT22;16960;49.404;8.248;2023-01-30T00:25:31;19.90;32.70
30148;DHT22;16960;49.404;8.248;2023-01-30T00:27:59;19.90;32.70
30148;DHT22;16960;49.404;8.248;2023-01-30T00:30:27;19.80;32.60
30148;DHT22;16960;49.404;8.248;2023-01-30T00:32:54;19.80;32.60
30148;DHT22;16960;49.404;8.248;2023-01-30T00:35:22;19.80;32.70
30148;DHT22;16960;49.404;8.248;2023-01-30T00:37:54;19.80;32.70
30148;DHT22;16960;49.404;8.248;2023-01-30T00:40:22;19.80;32.70
30148;DHT22;16960;49.404;8.248;2023-01-30T00:42:49;19.80;32.70
30148;DHT22;16960;49.404;8.248;2023-01-30T00:45:48;19.80;32.70
30148;DHT22;16960;49.404;8.248;2023-01-30T00:48:34;19.80;32.80
30148;DHT22;16960;49.404;8.248;2023-01-30T00:51:01;19.80;32.80
30148;DHT22;16960;49.404;8.248;2023-01-30T00:53:29;19.80;32.80
30148;DHT22;16960;49.404;8.248;2023-01-30T00:55:56;19.80;32.90
30148;DHT22;16960;49.404;8.248;2023-01-30T00:58:23;19.70;32.90
30148;DHT22;16960;49.404;8.248;2023-01-30T01:00:51;19.70;32.90
30148;DHT22;16960;49.404;8.248;2023-01-30T01:03:18;19.70;33.00
30148;DHT22;16960;49.404;8.248;2023-01-30T01:05:45;19.70;32.90
30148;DHT22;16960;49.404;8.248;2023-01-30T01:08:12;19.70;33.00
30148;DHT22;16960;49.404;8.248;2023-01-30T01:10:41;19.70;32.90
30148;DHT22;16960;49.404;8.248;2023-01-30T01:13:08;19.70;33.00
30148;DHT22;16960;49.404;8.248;2023-01-30T01:15:35;19.70;33.00
30148;DHT22;16960;49.404;8.248;2023-01-30T01:18:02;19.70;33.00
30148;DHT22;16960;49.404;8.248;2023-01-30T01:20:29;19.70;33.00
30148;DHT22;16960;49.404;8.248;2023-01-30T01:22:56;19.70;33.10
30148;DHT22;16960;49.404;8.248;2023-01-30T01:25:24;19.70;33.10
30148;DHT22;16960;49.404;8.248;2023-01-30T01:27:53;19.70;33.10
30148;DHT22;16960;49.404;8.248;2023-01-30T01:30:20;19.70;33.10
30148;DHT22;16960;49.404;8.248;2023-01-30T01:32:47;19.70;33.20
30148;DHT22;16960;49.404;8.248;2023-01-30T01:35:14;19.70;33.10
30148;DHT22;16960;49.404;8.248;2023-01-30T01:37:41;19.70;33.10
30148;DHT22;16960;49.404;8.248;2023-01-30T01:40:16;19.70;33.10
30148;DHT22;16960;49.404;8.248;2023-01-30T01:43:08;19.70;33.10
30148;DHT22;16960;49.404;8.248;2023-01-30T01:45:40;19.70;33.10
30148;DHT22;16960;49.404;8.248;2023-01-30T01:48:11;19.60;33.10
30148;DHT22;16960;49.404;8.248;2023-01-30T01:50:44;19.60;33.10
30148;DHT22;16960;49.404;8.248;2023-01-30T01:53:16;19.70;33.20
30148;DHT22;16960;49.404;8.248;2023-01-30T01:55:44;19.70;33.20
30148;DHT22;16960;49.404;8.248;2023-01-30T01:58:16;19.60;33.10
30148;DHT22;16960;49.404;8.248;2023-01-30T02:00:43;19.60;33.10
30148;DHT22;16960;49.404;8.248;2023-01-30T02:03:14;19.60;33.10
30148;DHT22;16960;49.404;8.248;2023-01-30T02:05:46;19.60;33.00
30148;DHT22;16960;49.404;8.248;2023-01-30T02:08:18;19.60;33.10
30148;DHT22;16960;49.404;8.248;2023-01-30T02:10:49;19.60;33.10
30148;DHT22;16960;49.404;8.248;2023-01-30T02:13:20;19.60;33.00
30148;DHT22;16960;49.404;8.248;2023-01-30T02:15:47;19.60;33.00
30148;DHT22;16960;49.404;8.248;2023-01-30T02:18:14;19.60;33.00
30148;DHT22;16960;49.404;8.248;2023-01-30T02:21:01;19.60;33.00
30148;DHT22;16960;49.404;8.248;2023-01-30T02:32:28;19.60;33.00
30148;DHT22;16960;49.404;8.248;2023-01-30T02:35:01;19.60;33.00
30148;DHT22;16960;49.404;8.248;2023-01-30T02:37:42;19.60;33.00
30148;DHT22;16960;49.404;8.248;2023-01-30T02:40:22;19.50;33.00
30148;DHT22;16960;49.404;8.248;2023-01-30T02:43:00;19.50;33.00
30148;DHT22;16960;49.404;8.248;2023-01-30T02:45:34;19.50;33.00
30148;DHT22;16960;49.404;8.248;2023-01-30T02:48:05;19.50;33.00
30148;DHT22;16960;49.404;8.248;2023-01-30T02:50:34;19.50;33.00
30148;DHT22;16960;49.404;8.248;2023-01-30T02:53:04;19.50;33.00
30148;DHT22;16960;49.404;8.248;2023-01-30T02:55:31;19.50;33.00
30148;DHT22;16960;49.404;8.248;2023-01-30T02:57:59;19.50;33.00
30148;DHT22;16960;49.404;8.248;2023-01-30T03:00:39;19.50;33.00
30148;DHT22;16960;49.404;8.248;2023-01-30T03:03:21;19.50;33.00
30148;DHT22;16960;49.404;8.248;2023-01-30T03:06:14;19.50;33.10
30148;DHT22;16960;49.404;8.248;2023-01-30T03:08:49;19.50;33.10
30148;DHT22;16960;49.404;8.248;2023-01-30T03:11:23;19.50;33.10
30148;DHT22;16960;49.404;8.248;2023-01-30T03:13:57;19.50;33.00
30148;DHT22;16960;49.404;8.248;2023-01-30T03:16:35;19.50;33.00
30148;DHT22;16960;49.404;8.248;2023-01-30T03:19:08;19.50;33.00
30148;DHT22;16960;49.404;8.248;2023-01-30T03:21:39;19.40;32.90
30148;DHT22;16960;49.404;8.248;2023-01-30T03:24:07;19.50;33.10
30148;DHT22;16960;49.404;8.248;2023-01-30T03:26:38;19.50;33.10
30148;DHT22;16960;49.404;8.248;2023-01-30T03:29:06;19.50;33.10
30148;DHT22;16960;49.404;8.248;2023-01-30T03:31:33;19.40;33.00
30148;DHT22;16960;49.404;8.248;2023-01-30T03:34:00;19.40;33.00
30148;DHT22;16960;49.404;8.248;2023-01-30T03:36:28;19.40;33.00
30148;DHT22;16960;49.404;8.248;2023-01-30T03:38:55;19.40;33.00
30148;DHT22;16960;49.404;8.248;2023-01-30T03:41:22;19.40;33.10
30148;DHT22;16960;49.404;8.248;2023-01-30T03:43:49;19.40;33.00
30148;DHT22;16960;49.404;8.248;2023-01-30T03:46:16;19.40;33.10
30148;DHT22;16960;49.404;8.248;2023-01-30T03:48:42;19.40;33.10
30148;DHT22;16960;49.404;8.248;2023-01-30T03:51:09;19.40;33.10
30148;DHT22;16960;49.404;8.248;2023-01-30T03:53:38;19.40;33.10
30148;DHT22;16960;49.404;8.248;2023-01-30T03:56:05;19.40;33.10
30148;DHT22;16960;49.404;8.248;2023-01-30T03:58:32;19.40;33.10
30148;DHT22;16960;49.404;8.248;2023-01-30T04:00:59;19.40;33.00
30148;DHT22;16960;49.404;8.248;2023-01-30T04:03:26;19.40;33.00
30148;DHT22;16960;49.404;8.248;2023-01-30T04:05:52;19.40;33.00
30148;DHT22;16960;49.404;8.248;2023-01-30T04:08:19;19.40;33.00
30148;DHT22;16960;49.404;8.248;2023-01-30T04:10:48;19.30;33.00
30148;DHT22;16960;49.404;8.248;2023-01-30T04:13:14;19.30;32.90
30148;DHT22;16960;49.404;8.248;2023-01-30T04:15:41;19.30;33.00
30148;DHT22;16960;49.404;8.248;2023-01-30T04:18:08;19.30;32.90
30148;DHT22;16960;49.404;8.248;2023-01-30T04:20:35;19.30;32.90
30148;DHT22;16960;49.404;8.248;2023-01-30T04:23:03;19.30;32.90
30148;DHT22;16960;49.404;8.248;2023-01-30T04:25:30;19.30;33.00
30148;DHT22;16960;49.404;8.248;2023-01-30T04:27:58;19.30;32.90
30148;DHT22;16960;49.404;8.248;2023-01-30T04:30:25;19.30;32.90
30148;DHT22;16960;49.404;8.248;2023-01-30T04:32:52;19.30;32.80
30148;DHT22;16960;49.404;8.248;2023-01-30T04:35:19;19.30;32.90
30148;DHT22;16960;49.404;8.248;2023-01-30T04:37:46;19.30;32.90
30148;DHT22;16960;49.404;8.248;2023-01-30T04:40:13;19.30;32.80
30148;DHT22;16960;49.404;8.248;2023-01-30T04:42:40;19.30;32.80
30148;DHT22;16960;49.404;8.248;2023-01-30T04:45:09;19.30;32.90
30148;DHT22;16960;49.404;8.248;2023-01-30T04:47:36;19.30;32.90
30148;DHT22;16960;49.404;8.248;2023-01-30T04:50:04;19.30;32.90
30148;DHT22;16960;49.404;8.248;2023-01-30T04:52:31;19.30;32.90
30148;DHT22;16960;49.404;8.248;2023-01-30T04:54:57;19.30;33.50
30148;DHT22;16960;49.404;8.248;2023-01-30T04:57:24;19.20;32.90
30148;DHT22;16960;49.404;8.248;2023-01-30T04:59:51;19.20;32.90
30148;DHT22;16960;49.404;8.248;2023-01-30T05:02:19;19.20;32.90
30148;DHT22;16960;49.404;8.248;2023-01-30T05:04:48;19.20;32.90
30148;DHT22;16960;49.404;8.248;2023-01-30T05:07:15;19.20;32.90
30148;DHT22;16960;49.404;8.248;2023-01-30T05:09:42;19.20;32.90
30148;DHT22;16960;49.404;8.248;2023-01-30T05:12:09;19.10;32.90
30148;DHT22;16960;49.404;8.248;2023-01-30T05:14:36;19.20;32.90
30148;DHT22;16960;49.404;8.248;2023-01-30T05:17:06;19.20;32.80
30148;DHT22;16960;49.404;8.248;2023-01-30T05:19:34;19.20;32.70
30148;DHT22;16960;49.404;8.248;2023-01-30T05:22:01;19.20;32.60
30148;DHT22;16960;49.404;8.248;2023-01-30T05:24:28;19.30;32.70
30148;DHT22;16960;49.404;8.248;2023-01-30T05:26:55;19.30;32.70
30148;DHT22;16960;49.404;8.248;2023-01-30T05:29:22;19.30;32.60
30148;DHT22;16960;49.404;8.248;2023-01-30T05:31:49;19.40;32.70
30148;DHT22;16960;49.404;8.248;2023-01-30T05:34:16;19.40;32.60
30148;DHT22;16960;49.404;8.248;2023-01-30T05:36:44;19.40;32.60
30148;DHT22;16960;49.404;8.248;2023-01-30T05:39:11;19.40;32.50
30148;DHT22;16960;49.404;8.248;2023-01-30T05:41:39;19.50;32.60
30148;DHT22;16960;49.404;8.248;2023-01-30T05:44:05;19.50;32.60
30148;DHT22;16960;49.404;8.248;2023-01-30T05:46:32;19.50;32.60
30148;DHT22;16960;49.404;8.248;2023-01-30T05:48:59;19.50;32.60
30148;DHT22;16960;49.404;8.248;2023-01-30T05:51:28;19.60;32.60
30148;DHT22;16960;49.404;8.248;2023-01-30T05:53:57;19.60;32.60
30148;DHT22;16960;49.404;8.248;2023-01-30T05:56:24;19.60;32.60
30148;DHT22;16960;49.404;8.248;2023-01-30T05:58:52;19.70;32.70
30148;DHT22;16960;49.404;8.248;2023-01-30T06:01:19;19.70;32.60
30148;DHT22;16960;49.404;8.248;2023-01-30T06:03:47;19.70;33.20
30148;DHT22;16960;49.404;8.248;2023-01-30T06:06:14;19.70;32.60
30148;DHT22;16960;49.404;8.248;2023-01-30T06:08:41;19.70;32.60
30148;DHT22;16960;49.404;8.248;2023-01-30T06:11:11;19.80;32.60
30148;DHT22;16960;49.404;8.248;2023-01-30T06:13:38;19.80;32.50
30148;DHT22;16960;49.404;8.248;2023-01-30T06:16:07;19.80;32.50
30148;DHT22;16960;49.404;8.248;2023-01-30T06:18:34;19.90;32.60
30148;DHT22;16960;49.404;8.248;2023-01-30T06:21:01;19.90;32.60
30148;DHT22;16960;49.404;8.248;2023-01-30T06:23:28;19.90;32.60
30148;DHT22;16960;49.404;8.248;2023-01-30T06:25:56;19.90;32.60
30148;DHT22;16960;49.404;8.248;2023-01-30T06:28:24;20.00;32.60
30148;DHT22;16960;49.404;8.248;2023-01-30T06:30:52;20.00;32.50
30148;DHT22;16960;49.404;8.248;2023-01-30T06:33:19;20.00;32.60
30148;DHT22;16960;49.404;8.248;2023-01-30T06:35:48;20.00;32.60
30148;DHT22;16960;49.404;8.248;2023-01-30T06:38:16;20.00;32.60
30148;DHT22;16960;49.404;8.248;2023-01-30T06:40:44;20.10;32.70
30148;DHT22;16960;49.404;8.248;2023-01-30T06:43:12;20.10;32.50
30148;DHT22;16960;49.404;8.248;2023-01-30T06:45:40;20.20;32.50
30148;DHT22;16960;49.404;8.248;2023-01-30T06:48:08;20.20;32.50
30148;DHT22;16960;49.404;8.248;2023-01-30T06:50:35;20.20;32.70
30148;DHT22;16960;49.404;8.248;2023-01-30T06:53:04;20.20;32.70
30148;DHT22;16960;49.404;8.248;2023-01-30T06:55:32;20.20;32.50
30148;DHT22;16960;49.404;8.248;2023-01-30T06:58:01;20.20;32.30
30148;DHT22;16960;49.404;8.248;2023-01-30T07:00:29;20.20;32.20
30148;DHT22;16960;49.404;8.248;2023-01-30T07:02:58;20.10;32.00
30148;DHT22;16960;49.404;8.248;2023-01-30T07:05:25;20.10;31.90
30148;DHT22;16960;49.404;8.248;2023-01-30T07:07:53;20.10;31.80
30148;DHT22;16960;49.404;8.248;2023-01-30T07:10:20;20.10;31.50
30148;DHT22;16960;49.404;8.248;2023-01-30T07:12:47;20.10;31.30
30148;DHT22;16960;49.404;8.248;2023-01-30T07:15:14;20.10;31.60
30148;DHT22;16960;49.404;8.248;2023-01-30T07:17:41;20.10;31.30
30148;DHT22;16960;49.404;8.248;2023-01-30T07:20:10;20.10;31.30
30148;DHT22;16960;49.404;8.248;2023-01-30T07:22:37;20.20;31.20
30148;DHT22;16960;49.404;8.248;2023-01-30T07:25:05;20.20;30.90
30148;DHT22;16960;49.404;8.248;2023-01-30T07:27:32;20.20;30.80
30148;DHT22;16960;49.404;8.248;2023-01-30T07:29:59;20.30;30.80
30148;DHT22;16960;49.404;8.248;2023-01-30T07:32:26;20.30;30.60
30148;DHT22;16960;49.404;8.248;2023-01-30T07:34:53;20.30;30.70
30148;DHT22;16960;49.404;8.248;2023-01-30T07:37:21;20.30;30.70
30148;DHT22;16960;49.404;8.248;2023-01-30T07:39:48;20.30;30.70
30148;DHT22;16960;49.404;8.248;2023-01-30T07:42:15;20.30;30.70
30148;DHT22;16960;49.404;8.248;2023-01-30T07:44:42;20.30;30.70
30148;DHT22;16960;49.404;8.248;2023-01-30T07:47:09;20.30;30.30
30148;DHT22;16960;49.404;8.248;2023-01-30T07:49:36;20.30;30.40
30148;DHT22;16960;49.404;8.248;2023-01-30T07:52:03;20.30;30.20
30148;DHT22;16960;49.404;8.248;2023-01-30T07:54:31;20.30;30.20
30148;DHT22;16960;49.404;8.248;2023-01-30T07:56:58;20.30;30.00
30148;DHT22;16960;49.404;8.248;2023-01-30T07:59:25;20.40;30.00
30148;DHT22;16960;49.404;8.248;2023-01-30T08:01:52;20.30;30.10
30148;DHT22;16960;49.404;8.248;2023-01-30T08:04:19;20.40;30.00
30148;DHT22;16960;49.404;8.248;2023-01-30T08:06:46;20.40;30.00
30148;DHT22;16960;49.404;8.248;2023-01-30T08:09:13;20.40;30.10
30148;DHT22;16960;49.404;8.248;2023-01-30T08:11:41;20.40;29.90
30148;DHT22;16960;49.404;8.248;2023-01-30T08:14:08;20.40;29.80
30148;DHT22;16960;49.404;8.248;2023-01-30T08:16:35;20.40;29.90
30148;DHT22;16960;49.404;8.248;2023-01-30T08:19:03;20.40;29.80
30148;DHT22;16960;49.404;8.248;2023-01-30T08:21:31;20.40;30.00
30148;DHT22;16960;49.404;8.248;2023-01-30T08:23:58;20.40;30.10
30148;DHT22;16960;49.404;8.248;2023-01-30T08:26:25;20.40;30.00
30148;DHT22;16960;49.404;8.248;2023-01-30T08:28:53;20.40;30.30
30148;DHT22;16960;49.404;8.248;2023-01-30T08:31:21;20.40;30.40
30148;DHT22;16960;49.404;8.248;2023-01-30T08:33:48;20.40;30.40
30148;DHT22;16960;49.404;8.248;2023-01-30T08:36:15;20.40;30.20
30148;DHT22;16960;49.404;8.248;2023-01-30T08:38:42;20.40;30.30
30148;DHT22;16960;49.404;8.248;2023-01-30T08:41:08;20.40;31.00
30148;DHT22;16960;49.404;8.248;2023-01-30T08:43:35;20.40;31.40
30148;DHT22;16960;49.404;8.248;2023-01-30T08:46:04;20.40;30.90
30148;DHT22;16960;49.404;8.248;2023-01-30T08:48:31;20.40;30.80
30148;DHT22;16960;49.404;8.248;2023-01-30T08:50:58;20.40;30.90
30148;DHT22;16960;49.404;8.248;2023-01-30T08:53:25;20.50;31.00
30148;DHT22;16960;49.404;8.248;2023-01-30T08:55:52;20.50;30.90
30148;DHT22;16960;49.404;8.248;2023-01-30T08:58:20;20.50;30.80
30148;DHT22;16960;49.404;8.248;2023-01-30T09:00:47;20.50;30.90
30148;DHT22;16960;49.404;8.248;2023-01-30T09:03:17;20.50;31.00
30148;DHT22;16960;49.404;8.248;2023-01-30T09:05:44;20.50;30.80
30148;DHT22;16960;49.404;8.248;2023-01-30T09:08:11;20.50;30.70
30148;DHT22;16960;49.404;8.248;2023-01-30T09:10:37;20.50;30.60
30148;DHT22;16960;49.404;8.248;2023-01-30T09:13:07;20.50;30.70
30148;DHT22;16960;49.404;8.248;2023-01-30T09:15:34;20.50;30.70
30148;DHT22;16960;49.404;8.248;2023-01-30T09:18:01;20.50;30.70
30148;DHT22;16960;49.404;8.248;2023-01-30T09:20:31;20.60;30.70
30148;DHT22;16960;49.404;8.248;2023-01-30T09:22:57;20.60;30.70
30148;DHT22;16960;49.404;8.248;2023-01-30T09:25:24;20.60;30.80
30148;DHT22;16960;49.404;8.248;2023-01-30T09:27:51;20.60;31.00
30148;DHT22;16960;49.404;8.248;2023-01-30T09:30:18;20.60;30.80
30148;DHT22;16960;49.404;8.248;2023-01-30T09:32:46;20.70;30.70
30148;DHT22;16960;49.404;8.248;2023-01-30T09:35:13;20.70;30.60
30148;DHT22;16960;49.404;8.248;2023-01-30T09:37:47;20.70;30.70
30148;DHT22;16960;49.404;8.248;2023-01-30T09:40:17;20.70;30.70
30148;DHT22;16960;49.404;8.248;2023-01-30T09:42:58;20.70;30.90
30148;DHT22;16960;49.404;8.248;2023-01-30T09:45:39;20.80;30.60
30148;DHT22;16960;49.404;8.248;2023-01-30T09:48:14;20.80;30.40
30148;DHT22;16960;49.404;8.248;2023-01-30T09:54:10;20.90;30.50
30148;DHT22;16960;49.404;8.248;2023-01-30T09:56:40;21.00;30.50
30148;DHT22;16960;49.404;8.248;2023-01-30T09:59:16;21.00;29.90
30148;DHT22;16960;49.404;8.248;2023-01-30T10:01:51;20.90;30.20
30148;DHT22;16960;49.404;8.248;2023-01-30T10:04:26;20.90;30.30
30148;DHT22;16960;49.404;8.248;2023-01-30T10:07:04;20.90;30.30
30148;DHT22;16960;49.404;8.248;2023-01-30T10:09:41;21.00;30.40
30148;DHT22;16960;49.404;8.248;2023-01-30T10:12:28;21.00;30.30
30148;DHT22;16960;49.404;8.248;2023-01-30T10:15:28;21.00;30.40
30148;DHT22;16960;49.404;8.248;2023-01-30T10:18:27;21.00;30.50
30148;DHT22;16960;49.404;8.248;2023-01-30T10:21:07;21.00;30.60
30148;DHT22;16960;49.404;8.248;2023-01-30T10:23:52;21.00;30.50
30148;DHT22;16960;49.404;8.248;2023-01-30T10:26:25;21.00;30.40
30148;DHT22;16960;49.404;8.248;2023-01-30T10:28:57;21.10;30.70
30148;DHT22;16960;49.404;8.248;2023-01-30T10:31:31;21.10;30.60
30148;DHT22;16960;49.404;8.248;2023-01-30T10:34:02;21.10;30.60
30148;DHT22;16960;49.404;8.248;2023-01-30T10:36:35;21.10;30.70
30148;DHT22;16960;49.404;8.248;2023-01-30T10:39:16;21.10;30.70
30148;DHT22;16960;49.404;8.248;2023-01-30T10:41:52;21.10;30.70
30148;DHT22;16960;49.404;8.248;2023-01-30T10:44:21;21.10;30.70
30148;DHT22;16960;49.404;8.248;2023-01-30T10:46:59;21.10;30.80
30148;DHT22;16960;49.404;8.248;2023-01-30T10:49:36;21.20;30.80
30148;DHT22;16960;49.404;8.248;2023-01-30T10:52:15;21.20;30.90
30148;DHT22;16960;49.404;8.248;2023-01-30T10:54:53;21.20;30.70
30148;DHT22;16960;49.404;8.248;2023-01-30T10:57:29;21.20;30.90
30148;DHT22;16960;49.404;8.248;2023-01-30T11:00:00;21.20;30.80
30148;DHT22;16960;49.404;8.248;2023-01-30T11:02:34;21.30;31.00
30148;DHT22;16960;49.404;8.248;2023-01-30T11:05:08;21.30;31.20
30148;DHT22;16960;49.404;8.248;2023-01-30T11:07:39;21.30;31.00
30148;DHT22;16960;49.404;8.248;2023-01-30T11:10:14;21.30;30.90
30148;DHT22;16960;49.404;8.248;2023-01-30T11:12:43;21.30;30.80
30148;DHT22;16960;49.404;8.248;2023-01-30T11:15:11;21.30;30.90
30148;DHT22;16960;49.404;8.248;2023-01-30T11:17:40;21.30;31.00
30148;DHT22;16960;49.404;8.248;2023-01-30T11:20:12;21.30;31.00
30148;DHT22;16960;49.404;8.248;2023-01-30T11:22:48;21.40;31.00
30148;DHT22;16960;49.404;8.248;2023-01-30T11:25:18;21.40;30.90
30148;DHT22;16960;49.404;8.248;2023-01-30T11:27:53;21.40;30.90
30148;DHT22;16960;49.404;8.248;2023-01-30T11:30:23;21.40;30.90
30148;DHT22;16960;49.404;8.248;2023-01-30T11:33:04;21.40;30.80
30148;DHT22;16960;49.404;8.248;2023-01-30T11:35:33;21.40;30.80
30148;DHT22;16960;49.404;8.248;2023-01-30T11:38:20;21.40;30.80
30148;DHT22;16960;49.404;8.248;2023-01-30T11:40:47;21.40;30.70
30148;DHT22;16960;49.404;8.248;2023-01-30T11:43:16;21.40;30.80
30148;DHT22;16960;49.404;8.248;2023-01-30T11:45:45;21.40;30.90
30148;DHT22;16960;49.404;8.248;2023-01-30T11:48:16;21.40;30.80
30148;DHT22;16960;49.404;8.248;2023-01-30T11:50:46;21.40;30.80
30148;DHT22;16960;49.404;8.248;2023-01-30T11:53:22;21.40;30.70
30148;DHT22;16960;49.404;8.248;2023-01-30T11:55:54;21.40;30.70
30148;DHT22;16960;49.404;8.248;2023-01-30T11:58:28;21.40;30.70
30148;DHT22;16960;49.404;8.248;2023-01-30T12:00:57;21.40;30.80
30148;DHT22;16960;49.404;8.248;2023-01-30T12:03:25;21.40;30.70
30148;DHT22;16960;49.404;8.248;2023-01-30T12:05:54;21.40;31.10
30148;DHT22;16960;49.404;8.248;2023-01-30T12:08:25;21.40;31.00
30148;DHT22;16960;49.404;8.248;2023-01-30T12:10:55;21.40;31.00
30148;DHT22;16960;49.404;8.248;2023-01-30T12:13:29;21.50;31.00
30148;DHT22;16960;49.404;8.248;2023-01-30T12:16:15;21.40;31.00
30148;DHT22;16960;49.404;8.248;2023-01-30T12:18:50;21.50;30.90
30148;DHT22;16960;49.404;8.248;2023-01-30T12:21:33;21.40;31.00
30148;DHT22;16960;49.404;8.248;2023-01-30T12:24:10;21.40;30.90
30148;DHT22;16960;49.404;8.248;2023-01-30T12:26:44;21.50;30.90
30148;DHT22;16960;49.404;8.248;2023-01-30T12:29:22;21.50;30.80
30148;DHT22;16960;49.404;8.248;2023-01-30T12:31:59;21.40;30.90
30148;DHT22;16960;49.404;8.248;2023-01-30T12:34:29;21.40;30.90
30148;DHT22;16960;49.404;8.248;2023-01-30T12:37:03;21.40;30.90
30148;DHT22;16960;49.404;8.248;2023-01-30T12:39:44;21.40;30.90
30148;DHT22;16960;49.404;8.248;2023-01-30T12:42:32;21.50;30.80
30148;DHT22;16960;49.404;8.248;2023-01-30T12:45:17;21.40;30.70
30148;DHT22;16960;49.404;8.248;2023-01-30T12:48:01;21.40;30.70
30148;DHT22;16960;49.404;8.248;2023-01-30T12:50:36;21.30;30.80
30148;DHT22;16960;49.404;8.248;2023-01-30T12:53:28;21.30;30.80
30148;DHT22;16960;49.404;8.248;2023-01-30T12:58:57;21.40;31.00
30148;DHT22;16960;49.404;8.248;2023-01-30T13:01:32;21.30;30.90
30148;DHT22;16960;49.404;8.248;2023-01-30T13:04:09;21.40;30.70
30148;DHT22;16960;49.404;8.248;2023-01-30T13:06:55;21.30;30.70
30148;DHT22;16960;49.404;8.248;2023-01-30T13:09:46;21.40;30.90
30148;DHT22;16960;49.404;8.248;2023-01-30T13:12:22;21.40;30.70
30148;DHT22;16960;49.404;8.248;2023-01-30T13:14:55;21.40;30.70
30148;DHT22;16960;49.404;8.248;2023-01-30T13:17:43;21.40;30.80
30148;DHT22;16960;49.404;8.248;2023-01-30T13:20:22;21.40;30.90
30148;DHT22;16960;49.404;8.248;2023-01-30T13:23:00;21.40;30.90
30148;DHT22;16960;49.404;8.248;2023-01-30T13:25:35;21.40;30.90
30148;DHT22;16960;49.404;8.248;2023-01-30T13:28:08;21.30;30.90
30148;DHT22;16960;49.404;8.248;2023-01-30T13:30:38;21.30;30.90
30148;DHT22;16960;49.404;8.248;2023-01-30T13:33:10;21.30;30.90
30148;DHT22;16960;49.404;8.248;2023-01-30T13:35:44;21.30;30.90
30148;DHT22;16960;49.404;8.248;2023-01-30T13:38:17;21.30;30.90
30148;DHT22;16960;49.404;8.248;2023-01-30T13:40:48;21.30;30.90
30148;DHT22;16960;49.404;8.248;2023-01-30T13:43:20;21.30;30.90
30148;DHT22;16960;49.404;8.248;2023-01-30T13:45:50;21.30;31.00
30148;DHT22;16960;49.404;8.248;2023-01-30T13:48:32;21.30;31.00
30148;DHT22;16960;49.404;8.248;2023-01-30T13:51:30;21.30;31.00
30148;DHT22;16960;49.404;8.248;2023-01-30T13:54:05;21.30;31.10
30148;DHT22;16960;49.404;8.248;2023-01-30T13:56:39;21.30;31.00
30148;DHT22;16960;49.404;8.248;2023-01-30T13:59:14;21.30;31.10
30148;DHT22;16960;49.404;8.248;2023-01-30T14:02:07;21.30;31.00
30148;DHT22;16960;49.404;8.248;2023-01-30T14:04:50;21.40;31.20
30148;DHT22;16960;49.404;8.248;2023-01-30T14:07:22;21.40;31.00
30148;DHT22;16960;49.404;8.248;2023-01-30T14:10:00;21.40;31.10
30148;DHT22;16960;49.404;8.248;2023-01-30T14:12:33;21.40;31.10
30148;DHT22;16960;49.404;8.248;2023-01-30T14:15:04;21.40;31.10
30148;DHT22;16960;49.404;8.248;2023-01-30T14:17:32;21.50;31.20
30148;DHT22;16960;49.404;8.248;2023-01-30T14:20:04;21.50;31.20
30148;DHT22;16960;49.404;8.248;2023-01-30T14:22:49;21.50;31.30
30148;DHT22;16960;49.404;8.248;2023-01-30T14:25:47;21.50;31.20
30148;DHT22;16960;49.404;8.248;2023-01-30T14:28:48;21.50;31.20
30148;DHT22;16960;49.404;8.248;2023-01-30T14:34:49;21.50;31.00
30148;DHT22;16960;49.404;8.248;2023-01-30T14:41:14;21.50;30.90
30148;DHT22;16960;49.404;8.248;2023-01-30T14:43:49;21.40;30.70
30148;DHT22;16960;49.404;8.248;2023-01-30T14:46:44;21.40;30.80
30148;DHT22;16960;49.404;8.248;2023-01-30T14:49:25;21.40;30.90
30148;DHT22;16960;49.404;8.248;2023-01-30T14:51:52;21.40;31.40
30148;DHT22;16960;49.404;8.248;2023-01-30T14:54:27;21.40;31.00
30148;DHT22;16960;49.404;8.248;2023-01-30T14:56:56;21.30;30.90
30148;DHT22;16960;49.404;8.248;2023-01-30T14:59:26;21.30;30.90
30148;DHT22;16960;49.404;8.248;2023-01-30T15:02:15;21.30;30.80
30148;DHT22;16960;49.404;8.248;2023-01-30T15:04:48;21.30;31.10
30148;DHT22;16960;49.404;8.248;2023-01-30T15:07:19;21.30;31.00
30148;DHT22;16960;49.404;8.248;2023-01-30T15:09:53;21.30;31.10
30148;DHT22;16960;49.404;8.248;2023-01-30T15:12:35;21.30;31.00
30148;DHT22;16960;49.404;8.248;2023-01-30T15:15:14;21.30;31.00
30148;DHT22;16960;49.404;8.248;2023-01-30T15:17:55;21.30;31.10
30148;DHT22;16960;49.404;8.248;2023-01-30T15:20:31;21.30;31.10
30148;DHT22;16960;49.404;8.248;2023-01-30T15:26:24;21.30;31.10
30148;DHT22;16960;49.404;8.248;2023-01-30T15:29:02;21.30;31.00
30148;DHT22;16960;49.404;8.248;2023-01-30T15:31:32;21.30;31.10
30148;DHT22;16960;49.404;8.248;2023-01-30T15:33:59;21.30;31.00
30148;DHT22;16960;49.404;8.248;2023-01-30T15:36:30;21.30;31.20
30148;DHT22;16960;49.404;8.248;2023-01-30T15:38:59;21.30;31.10
30148;DHT22;16960;49.404;8.248;2023-01-30T15:41:29;21.30;30.90
30148;DHT22;16960;49.404;8.248;2023-01-30T15:44:37;21.30;31.10
30148;DHT22;16960;49.404;8.248;2023-01-30T15:47:24;21.30;31.10
30148;DHT22;16960;49.404;8.248;2023-01-30T15:49:56;21.20;31.10
30148;DHT22;16960;49.404;8.248;2023-01-30T15:52:35;21.20;31.10
30148;DHT22;16960;49.404;8.248;2023-01-30T15:55:05;21.20;31.10
30148;DHT22;16960;49.404;8.248;2023-01-30T15:57:37;21.20;31.00
30148;DHT22;16960;49.404;8.248;2023-01-30T16:00:06;21.20;31.00
30148;DHT22;16960;49.404;8.248;2023-01-30T16:02:36;21.20;31.00
30148;DHT22;16960;49.404;8.248;2023-01-30T16:05:14;21.20;31.80
30148;DHT22;16960;49.404;8.248;2023-01-30T16:07:42;21.30;31.20
30148;DHT22;16960;49.404;8.248;2023-01-30T16:10:13;21.30;31.20
30148;DHT22;16960;49.404;8.248;2023-01-30T16:12:49;21.30;31.30
30148;DHT22;16960;49.404;8.248;2023-01-30T16:15:24;21.30;31.20
30148;DHT22;16960;49.404;8.248;2023-01-30T16:17:58;21.30;31.30
30148;DHT22;16960;49.404;8.248;2023-01-30T16:20:25;21.30;31.30
30148;DHT22;16960;49.404;8.248;2023-01-30T16:22:53;21.30;31.30